Hamilton (NZHN)

Aerodrome — Elev 172
New Zealand
S037.51.59.980 E175.19.55.402
Loading chart...

Current Weather

NZHN 120000Z 27009KT 35KM SCT048 24/12 Q1012 RMK AUTO VATSIM USE ONLY

Published 44 minutes ago

Airport Activity

Loading chart...
Loading chart...

Positions

CallsignRadio Name / Freq / Voice Room / TypeFrequencyVoice RoomType
NZCH-B_CTR Bay Approach
119.500
nzch-b_ctr
119.500nzch-b_ctr
NZHN_APP Bay Approach
125.300
nzhn_app
125.300nzhn_app
NZHN_TWR Hamilton Tower
122.900
nzhn_twr
122.900nzhn_twr
NZHN_ATIS Hamilton ATIS
128.650
nzhn_atis
128.650nzhn_atis

Charts